Etusivu
METAR-TAF:

METAR-TAF

Lentoasemat :

Crestview, Florida, Yhdysvallat

Leveyspiiri: 30-46-20N, Pituuspiiri: 086-31-12W, korkeus merenpinnasta: 65 m

Tämänhetkinen sää

Tämä raportti tehtiin 1 tunti ja 4 minuuttia sitten, kello 23.53 UTC
Tuuli 5 kn etelästä
Lämpötila 22°C
Kosteus 83%
Ilmanpaine 1021 hPa
Näkyvyys: 16.1 km
selkeää

METAR: KCEW 272353Z AUTO 17005KT 10SM CLR 22/19 A3014 RMK AO2 SLP203 T02170189 10261 20217 53003

Aika: 18:57 (00:57 UTC)


TAF: puuttuu

Säähavainnot ja -ennusteet yli 4000 lentoasemalta (METAR- ja TAF-raportit).

Käytössä olevat sääasemat on merkitty karttaan keltaisilla ja punaisilla pisteillä.

Aseta hiiri pisteen päälle nähdäksesi sääaseman nimen.

Klikkaa sitten nähdäksesi säähavainnot ja -ennusteet.

Kartan vaihtaminen: klikkaa mustalla rastilla varustettuja vihreitä pisteitä, niin voit zoomata sisään; viivalla varustettua vihreää pistettä, niin voit zoomata ulos tai vihreitä nuolia, niin pääset viereisille kartoille.


METAR-TAF: